Terminal Aerodrome Forecast
Issued by NWS Wilmington, NC

Home | Current Version | Previous Version | Text Only | Print | Product List | Glossary On
Versions: 1 2 3 4 5 6 7 8 9 10 11 12 13 14 15
000
FTUS42 KILM 010200 AAA
TAFLBT
TAF AMD
KLBT 010230Z 0103/0124 07004KT P6SM SCT060 BKN120
     FM010500 07004KT 6SM -SHRA SCT020 BKN060
      TEMPO 0105/0108 3SM SHRA BKN018
     FM010800 06004KT 6SM BR VCSH BKN025
      TEMPO 0109/0111 4SM BR
     FM011400 06005KT P6SM VCSH BKN025=

USA.gov is the U.S. government's official web portal to all federal, state and local government web resources and services.